createdAt,value
2018-05-23T00:04:23.851Z,11.97
2018-05-23T00:09:25.370Z,12.57
2018-05-23T00:14:27.636Z,11.83
2018-05-23T00:19:29.404Z,10.50
2018-05-23T00:24:30.933Z,9.57
2018-05-23T00:29:32.465Z,10.17
2018-05-23T00:34:34.709Z,10.23
2018-05-23T00:39:36.208Z,10.27
2018-05-23T00:44:38.463Z,9.87
2018-05-23T00:49:39.971Z,10.87
2018-05-23T00:55:00.002Z,11.43
2018-05-23T01:00:01.539Z,10.80
2018-05-23T01:05:03.881Z,11.43
2018-05-23T01:10:05.447Z,12.10
2018-05-23T01:15:06.939Z,11.43
2018-05-23T01:20:08.455Z,12.53
2018-05-23T01:25:10.098Z,11.87
2018-05-23T01:30:11.617Z,12.23
2018-05-23T01:35:13.106Z,13.83
2018-05-23T01:40:14.602Z,12.30
2018-05-23T01:45:16.851Z,12.10
2018-05-23T01:50:18.367Z,11.10
2018-05-23T01:55:19.903Z,10.83
2018-05-23T02:00:21.429Z,12.87
2018-05-23T02:05:22.949Z,11.57
2018-05-23T02:10:25.345Z,12.00
2018-05-23T02:15:27.598Z,12.50
2018-05-23T02:20:29.151Z,12.57
2018-05-23T02:25:30.682Z,13.30
2018-05-23T02:30:32.169Z,12.50
2018-05-23T02:35:33.663Z,14.43
2018-05-23T02:40:35.179Z,12.27
2018-05-23T02:45:36.696Z,13.30
2018-05-23T02:50:38.303Z,12.17
2018-05-23T02:55:40.571Z,12.40
2018-05-23T03:00:42.073Z,14.03
2018-05-23T03:05:43.853Z,14.30
2018-05-23T03:10:45.412Z,12.20
2018-05-23T03:15:46.951Z,11.47
2018-05-23T03:20:48.467Z,12.37
2018-05-23T03:25:50.006Z,11.17
2018-05-23T03:30:51.520Z,10.33
2018-05-23T03:35:53.062Z,10.90
2018-05-23T03:40:54.545Z,13.57
2018-05-23T03:45:56.236Z,12.30
2018-05-23T03:50:57.764Z,12.20
2018-05-23T03:55:59.252Z,10.93
2018-05-23T04:01:19.404Z,11.07
2018-05-23T04:06:40.340Z,11.10
2018-05-23T04:11:42.590Z,11.77
2018-05-23T04:16:44.140Z,10.70
2018-05-23T04:21:45.699Z,11.50
2018-05-23T04:26:47.195Z,11.77
2018-05-23T04:31:48.733Z,11.30
2018-05-23T04:36:50.238Z,11.70
2018-05-23T04:41:51.750Z,11.23
2018-05-23T04:46:53.439Z,11.33
2018-05-23T04:51:54.968Z,11.50
2018-05-23T04:56:57.231Z,11.23
2018-05-23T05:01:58.724Z,11.70
2018-05-23T05:07:00.925Z,12.57
2018-05-23T05:12:02.582Z,13.77
2018-05-23T05:17:04.217Z,13.30
2018-05-23T05:22:05.717Z,14.50
2018-05-23T05:27:08.014Z,15.10
2018-05-23T05:32:09.538Z,13.63
2018-05-23T05:37:10.988Z,16.50
2018-05-23T05:42:12.473Z,17.07
2018-05-23T05:47:14.079Z,16.97
2018-05-23T05:52:15.617Z,16.73
2018-05-23T05:57:17.127Z,15.03
2018-05-23T06:02:18.670Z,16.67
2018-05-23T06:07:20.922Z,15.17
2018-05-23T06:12:22.432Z,17.03
2018-05-23T06:17:23.991Z,15.80
2018-05-23T06:22:26.301Z,15.57
2018-05-23T06:27:27.933Z,13.90
2018-05-23T06:32:30.231Z,15.63
2018-05-23T06:37:32.501Z,14.60
2018-05-23T06:42:34.060Z,16.07
2018-05-23T06:47:35.549Z,15.40
2018-05-23T06:52:37.806Z,14.00
2018-05-23T06:57:39.393Z,14.80
2018-05-23T07:02:41.679Z,15.20
2018-05-23T07:07:43.972Z,14.10
2018-05-23T07:12:45.496Z,14.53
2018-05-23T07:17:47.088Z,14.80
2018-05-23T07:22:49.294Z,12.77
2018-05-23T07:27:51.547Z,16.13
2018-05-23T07:32:53.053Z,14.40
2018-05-23T07:37:54.615Z,16.07
2018-05-23T07:42:56.983Z,17.17
2018-05-23T07:47:58.508Z,15.83
2018-05-23T07:53:00.040Z,16.77
2018-05-23T07:58:02.332Z,18.03
2018-05-23T08:03:03.864Z,16.13
2018-05-23T08:08:05.330Z,15.90
2018-05-23T08:13:06.895Z,15.00
2018-05-23T08:18:08.432Z,16.07
2018-05-23T08:23:09.930Z,13.97
2018-05-23T08:28:11.413Z,13.17
2018-05-23T08:33:12.935Z,14.30
2018-05-23T08:38:14.434Z,13.30
2018-05-23T08:43:15.939Z,12.73
2018-05-23T08:48:18.141Z,13.10
2018-05-23T08:53:19.668Z,13.50
2018-05-23T08:58:21.907Z,14.03
2018-05-23T09:03:23.450Z,12.53
2018-05-23T09:08:25.709Z,13.57
2018-05-23T09:13:28.044Z,13.03
2018-05-23T09:18:29.506Z,12.60
2018-05-23T09:23:31.062Z,12.37
2018-05-23T09:28:32.584Z,12.33
2018-05-23T09:33:34.055Z,12.73
2018-05-23T09:38:35.573Z,12.47
2018-05-23T09:43:37.196Z,13.00
2018-05-23T09:48:38.686Z,12.07
2018-05-23T09:53:40.182Z,11.90
2018-05-23T09:58:41.770Z,11.27
2018-05-23T10:03:43.386Z,12.60
2018-05-23T10:08:44.874Z,13.00
2018-05-23T10:13:46.472Z,12.47
2018-05-23T10:18:48.100Z,12.83
2018-05-23T10:23:49.629Z,14.07
2018-05-23T10:28:51.146Z,13.13
2018-05-23T10:33:52.733Z,13.03
2018-05-23T10:38:54.325Z,12.10
2018-05-23T10:43:55.935Z,11.53
2018-05-23T10:48:58.232Z,10.93
2018-05-23T10:53:59.832Z,10.73
2018-05-23T10:59:01.387Z,10.50
2018-05-23T11:04:03.010Z,11.90
2018-05-23T11:09:05.415Z,10.00
2018-05-23T11:14:06.943Z,10.47
2018-05-23T11:19:08.475Z,11.13
2018-05-23T11:24:10.257Z,9.67
2018-05-23T11:29:11.880Z,8.73
2018-05-23T11:34:14.631Z,10.70
2018-05-23T11:39:16.267Z,9.80
2018-05-23T11:44:17.792Z,10.97
2018-05-23T11:49:19.329Z,10.37
2018-05-23T11:54:20.864Z,10.70
2018-05-23T11:59:23.167Z,11.20
2018-05-23T12:04:24.681Z,11.30
2018-05-23T12:09:26.189Z,13.03
2018-05-23T12:14:28.740Z,11.93
2018-05-23T12:19:30.373Z,12.37
2018-05-23T12:24:31.841Z,11.37
2018-05-23T12:29:33.385Z,11.60
2018-05-23T12:34:34.948Z,11.70
2018-05-23T12:39:37.264Z,12.33
2018-05-23T12:44:38.824Z,12.57
2018-05-23T12:49:40.496Z,11.20
2018-05-23T12:54:42.019Z,11.93
2018-05-23T12:59:43.565Z,11.40
2018-05-23T13:04:45.157Z,10.77
2018-05-23T13:09:46.728Z,11.33
2018-05-23T13:14:48.301Z,11.07
2018-05-23T13:19:49.802Z,11.37
2018-05-23T13:24:51.320Z,9.90
2018-05-23T13:29:52.776Z,10.43
2018-05-23T13:34:54.310Z,9.67
2018-05-23T13:39:55.857Z,9.60
2018-05-23T13:45:04.983Z,9.73
2018-05-23T13:50:06.718Z,9.17
2018-05-23T13:55:08.272Z,9.20
2018-05-23T14:00:10.470Z,8.27
2018-05-23T14:05:11.985Z,8.40
2018-05-23T14:10:14.338Z,8.60
2018-05-23T14:15:15.924Z,8.00
2018-05-23T14:20:17.464Z,9.60
2018-05-23T14:25:18.963Z,9.90
2018-05-23T14:30:20.456Z,10.13
2018-05-23T14:35:22.755Z,10.40
2018-05-23T14:40:24.276Z,9.70
2018-05-23T14:45:25.740Z,10.80
2018-05-23T14:50:27.302Z,9.90
2018-05-23T14:55:28.896Z,11.07
2018-05-23T15:00:31.214Z,9.47
2018-05-23T15:05:32.768Z,9.37
2018-05-23T15:10:34.404Z,8.93
2018-05-23T15:15:35.953Z,9.87
2018-05-23T15:20:37.451Z,8.73
2018-05-23T15:25:39.699Z,7.87
2018-05-23T15:30:41.380Z,7.20
2018-05-23T15:35:43.774Z,6.87
2018-05-23T15:40:45.414Z,6.97
2018-05-23T15:45:46.985Z,6.03
2018-05-23T15:50:48.585Z,6.87
2018-05-23T15:55:50.131Z,6.43
2018-05-23T16:00:51.693Z,6.20
2018-05-23T16:05:53.323Z,7.17
2018-05-23T16:10:55.556Z,6.67
2018-05-23T16:15:57.134Z,7.17
2018-05-23T16:20:58.684Z,7.70
2018-05-23T16:26:00.206Z,7.80
2018-05-23T16:31:02.601Z,9.37
2018-05-23T16:36:04.883Z,9.40
2018-05-23T16:41:07.236Z,9.43
2018-05-23T16:46:08.763Z,10.97
2018-05-23T16:51:10.316Z,10.87
2018-05-23T16:56:12.618Z,10.60
2018-05-23T17:01:15.110Z,10.10
2018-05-23T17:06:16.641Z,10.60
2018-05-23T17:11:18.245Z,10.80
2018-05-23T17:16:19.801Z,11.20
2018-05-23T17:21:21.346Z,13.00
2018-05-23T17:26:22.890Z,12.93
2018-05-23T17:31:24.420Z,14.37
2018-05-23T17:36:25.945Z,13.97
2018-05-23T17:41:28.494Z,14.20
2018-05-23T17:46:30.069Z,14.00
2018-05-23T17:51:31.635Z,16.33
2018-05-23T17:56:33.238Z,16.50
2018-05-23T18:01:34.886Z,15.53
2018-05-23T18:06:36.696Z,15.90
2018-05-23T18:11:38.450Z,17.40
2018-05-23T18:16:40.961Z,14.60
2018-05-23T18:21:42.492Z,15.90
2018-05-23T18:26:44.059Z,17.07
2018-05-23T18:31:45.595Z,17.80
2018-05-23T18:36:47.171Z,17.33
2018-05-23T18:41:49.273Z,16.53
2018-05-23T18:46:52.629Z,16.53
2018-05-23T18:51:54.875Z,17.03
2018-05-23T18:56:56.404Z,16.77
2018-05-23T19:01:57.936Z,16.33
2018-05-23T19:06:59.615Z,16.77
2018-05-23T19:12:01.939Z,15.60
2018-05-23T19:17:03.503Z,15.10
2018-05-23T19:22:05.070Z,15.47
2018-05-23T19:27:06.611Z,15.37
2018-05-23T19:32:08.953Z,14.60
2018-05-23T19:37:10.560Z,15.37
2018-05-23T19:42:12.536Z,13.47
2018-05-23T19:47:14.099Z,14.77
2018-05-23T19:52:15.636Z,13.70
2018-05-23T19:57:17.194Z,14.20
2018-05-23T20:02:18.768Z,14.23
2018-05-23T20:07:20.354Z,12.03
2018-05-23T20:12:21.942Z,12.90
2018-05-23T20:17:23.560Z,12.73
2018-05-23T20:22:25.099Z,11.93
2018-05-23T20:27:26.938Z,11.10
2018-05-23T20:32:28.442Z,12.03
2018-05-23T20:37:30.791Z,11.63
2018-05-23T20:42:32.335Z,11.63
2018-05-23T20:47:33.956Z,12.30
2018-05-23T20:52:35.505Z,11.87
2018-05-23T20:57:37.196Z,10.93
2018-05-23T21:02:39.037Z,10.83
2018-05-23T21:07:40.624Z,13.23
2018-05-23T21:12:42.166Z,11.43
2018-05-23T21:17:43.723Z,11.57
2018-05-23T21:22:45.421Z,12.43
2018-05-23T21:27:47.212Z,11.63
2018-05-23T21:32:48.639Z,11.23
2018-05-23T21:38:12.968Z,11.17
2018-05-23T21:43:14.661Z,12.80
2018-05-23T21:48:16.345Z,13.70
2018-05-23T21:53:18.598Z,12.43
2018-05-23T21:58:20.259Z,12.20
2018-05-23T22:03:21.865Z,13.27
2018-05-23T22:08:24.568Z,13.40
2018-05-23T22:13:26.901Z,12.70
2018-05-23T22:18:28.531Z,12.70
2018-05-23T22:23:42.224Z,12.17
2018-05-23T22:28:45.875Z,13.67
2018-05-23T22:34:00.467Z,14.67
2018-05-23T22:44:47.679Z,13.93
2018-05-23T22:49:49.536Z,13.63
2018-05-23T22:54:52.035Z,15.03
2018-05-23T22:59:53.712Z,14.47
2018-05-23T23:04:56.083Z,14.20
2018-05-23T23:09:57.876Z,13.87
2018-05-23T23:14:59.627Z,14.80
2018-05-23T23:20:02.144Z,15.27
2018-05-23T23:25:03.908Z,16.30
2018-05-23T23:30:05.386Z,15.67
2018-05-23T23:35:07.136Z,15.80
2018-05-23T23:40:09.442Z,17.20
2018-05-23T23:45:10.968Z,16.00
2018-05-23T23:50:12.668Z,15.90
2018-05-23T23:55:15.167Z,15.90
